Terminal Aerodrome Forecast
Issued by NWS

Home | Current Version | Previous Version | Text Only | Print | Product List | Glossary On
Versions: 1 2 3 4 5 6 7 8 9 10 11 12 13 14 15 16
202
FTUS43 KGRB 301131
TAFCWA
TAF
KCWA 301131Z 3012/0112 04009KT P6SM BKN050
     FM301600 06010G15KT P6SM OVC035
     FM301800 06009G16KT P6SM OVC024
     FM302100 06009G15KT P6SM BKN019
     FM302200 06007KT P6SM OVC015
     FM010800 04007KT P6SM -SHRA OVC013=

USA.gov is the U.S. government's official web portal to all federal, state and local government web resources and services.